Terminal Aerodrome Forecast
Issued by NWS

Current Version | Previous Version | Graphics & Text | Print | Product List | Glossary On
Versions: 1 2 3 4 5 6 7 8 9 10 11
733
FTUS41 KILN 211736
TAFLCK
TAF
KLCK 211736Z 2118/2218 30010KT P6SM OVC090
     FM220400 36008KT P6SM VCSH SCT035 OVC090
     FM220800 02009KT P6SM -RA OVC025
     FM221300 03011G18KT P6SM VCSH OVC025
     FM221600 04010G18KT P6SM VCSH SCT025 OVC090=

USA.gov is the U.S. government's official web portal to all federal, state and local government web resources and services.